sensor_id;sensor_type;location;lat;lon;timestamp;temperature;humidity
25877;DHT22;13692;47.480;19.216;2023-03-14T00:00:12;8.90;94.60
25877;DHT22;13692;47.480;19.216;2023-03-14T00:02:39;8.90;94.70
25877;DHT22;13692;47.480;19.216;2023-03-14T00:05:08;8.90;94.90
25877;DHT22;13692;47.480;19.216;2023-03-14T00:07:37;8.90;94.90
25877;DHT22;13692;47.480;19.216;2023-03-14T00:10:09;8.80;95.00
25877;DHT22;13692;47.480;19.216;2023-03-14T00:12:37;8.80;95.00
25877;DHT22;13692;47.480;19.216;2023-03-14T00:15:04;8.80;95.10
25877;DHT22;13692;47.480;19.216;2023-03-14T00:17:34;8.80;95.10
25877;DHT22;13692;47.480;19.216;2023-03-14T00:20:04;8.90;95.20
25877;DHT22;13692;47.480;19.216;2023-03-14T00:22:36;8.90;95.20
25877;DHT22;13692;47.480;19.216;2023-03-14T00:25:04;8.90;95.20
25877;DHT22;13692;47.480;19.216;2023-03-14T00:27:32;8.90;95.40
25877;DHT22;13692;47.480;19.216;2023-03-14T00:29:59;8.80;95.40
25877;DHT22;13692;47.480;19.216;2023-03-14T00:32:26;8.90;95.30
25877;DHT22;13692;47.480;19.216;2023-03-14T00:34:53;8.80;95.40
25877;DHT22;13692;47.480;19.216;2023-03-14T00:37:20;8.80;95.50
25877;DHT22;13692;47.480;19.216;2023-03-14T00:39:47;8.80;95.60
25877;DHT22;13692;47.480;19.216;2023-03-14T00:42:14;8.80;95.40
25877;DHT22;13692;47.480;19.216;2023-03-14T00:44:41;8.90;95.40
25877;DHT22;13692;47.480;19.216;2023-03-14T00:47:08;8.90;95.50
25877;DHT22;13692;47.480;19.216;2023-03-14T00:49:35;8.90;95.60
25877;DHT22;13692;47.480;19.216;2023-03-14T00:52:02;8.80;95.60
25877;DHT22;13692;47.480;19.216;2023-03-14T00:54:29;8.90;95.60
25877;DHT22;13692;47.480;19.216;2023-03-14T00:56:56;8.90;95.70
25877;DHT22;13692;47.480;19.216;2023-03-14T00:59:22;8.90;95.60
25877;DHT22;13692;47.480;19.216;2023-03-14T01:01:49;8.90;95.70
25877;DHT22;13692;47.480;19.216;2023-03-14T01:04:16;8.90;95.70
25877;DHT22;13692;47.480;19.216;2023-03-14T01:06:44;8.90;95.80
25877;DHT22;13692;47.480;19.216;2023-03-14T01:09:11;8.90;95.80
25877;DHT22;13692;47.480;19.216;2023-03-14T01:11:38;8.90;95.80
25877;DHT22;13692;47.480;19.216;2023-03-14T01:14:05;8.90;95.90
25877;DHT22;13692;47.480;19.216;2023-03-14T01:16:34;8.90;96.00
25877;DHT22;13692;47.480;19.216;2023-03-14T01:19:02;8.90;95.90
25877;DHT22;13692;47.480;19.216;2023-03-14T01:21:34;9.00;95.80
25877;DHT22;13692;47.480;19.216;2023-03-14T01:24:03;8.90;96.10
25877;DHT22;13692;47.480;19.216;2023-03-14T01:26:33;8.90;96.00
25877;DHT22;13692;47.480;19.216;2023-03-14T01:29:00;8.90;96.10
25877;DHT22;13692;47.480;19.216;2023-03-14T01:31:28;8.90;96.10
25877;DHT22;13692;47.480;19.216;2023-03-14T01:33:55;8.80;96.10
25877;DHT22;13692;47.480;19.216;2023-03-14T01:36:22;8.80;96.10
25877;DHT22;13692;47.480;19.216;2023-03-14T01:38:49;8.80;96.30
25877;DHT22;13692;47.480;19.216;2023-03-14T01:41:20;8.80;96.40
25877;DHT22;13692;47.480;19.216;2023-03-14T01:43:48;8.70;96.40
25877;DHT22;13692;47.480;19.216;2023-03-14T01:46:30;8.70;96.70
25877;DHT22;13692;47.480;19.216;2023-03-14T01:49:07;8.60;96.80
25877;DHT22;13692;47.480;19.216;2023-03-14T01:57:20;8.40;97.40
25877;DHT22;13692;47.480;19.216;2023-03-14T01:59:59;8.40;97.60
25877;DHT22;13692;47.480;19.216;2023-03-14T02:02:28;8.40;97.70
25877;DHT22;13692;47.480;19.216;2023-03-14T02:04:57;8.30;97.80
25877;DHT22;13692;47.480;19.216;2023-03-14T02:07:53;8.30;98.00
25877;DHT22;13692;47.480;19.216;2023-03-14T02:10:23;8.30;98.20
25877;DHT22;13692;47.480;19.216;2023-03-14T02:12:53;8.30;98.30
25877;DHT22;13692;47.480;19.216;2023-03-14T02:15:22;8.30;98.60
25877;DHT22;13692;47.480;19.216;2023-03-14T02:17:49;8.30;98.80
25877;DHT22;13692;47.480;19.216;2023-03-14T02:23:06;8.20;99.00
25877;DHT22;13692;47.480;19.216;2023-03-14T02:25:47;8.20;99.10
25877;DHT22;13692;47.480;19.216;2023-03-14T02:28:14;8.20;99.20
25877;DHT22;13692;47.480;19.216;2023-03-14T02:30:42;8.20;99.40
25877;DHT22;13692;47.480;19.216;2023-03-14T02:33:12;8.20;99.50
25877;DHT22;13692;47.480;19.216;2023-03-14T02:38:24;8.20;99.80
25877;DHT22;13692;47.480;19.216;2023-03-14T02:40:54;8.20;99.90
25877;DHT22;13692;47.480;19.216;2023-03-14T02:43:21;8.10;99.90
25877;DHT22;13692;47.480;19.216;2023-03-14T02:45:49;8.10;99.90
25877;DHT22;13692;47.480;19.216;2023-03-14T02:48:23;8.20;99.90
25877;DHT22;13692;47.480;19.216;2023-03-14T02:50:54;8.20;99.90
25877;DHT22;13692;47.480;19.216;2023-03-14T02:53:31;8.20;99.90
25877;DHT22;13692;47.480;19.216;2023-03-14T02:55:58;8.20;99.90
25877;DHT22;13692;47.480;19.216;2023-03-14T02:58:26;8.30;99.90
25877;DHT22;13692;47.480;19.216;2023-03-14T03:00:53;8.30;99.90
25877;DHT22;13692;47.480;19.216;2023-03-14T03:03:20;8.40;99.90
25877;DHT22;13692;47.480;19.216;2023-03-14T03:05:52;8.40;99.90
25877;DHT22;13692;47.480;19.216;2023-03-14T03:08:21;8.50;99.90
25877;DHT22;13692;47.480;19.216;2023-03-14T03:10:48;8.50;99.90
25877;DHT22;13692;47.480;19.216;2023-03-14T03:13:16;8.60;99.90
25877;DHT22;13692;47.480;19.216;2023-03-14T03:15:43;8.60;99.90
25877;DHT22;13692;47.480;19.216;2023-03-14T03:18:11;8.60;99.90
25877;DHT22;13692;47.480;19.216;2023-03-14T03:20:38;8.60;99.90
25877;DHT22;13692;47.480;19.216;2023-03-14T03:23:05;8.60;99.90
25877;DHT22;13692;47.480;19.216;2023-03-14T03:25:32;8.60;99.90
25877;DHT22;13692;47.480;19.216;2023-03-14T03:27:59;8.60;99.90
25877;DHT22;13692;47.480;19.216;2023-03-14T03:30:26;8.70;99.90
25877;DHT22;13692;47.480;19.216;2023-03-14T03:32:53;8.70;99.90
25877;DHT22;13692;47.480;19.216;2023-03-14T03:35:20;8.70;99.90
25877;DHT22;13692;47.480;19.216;2023-03-14T03:37:46;8.70;99.90
25877;DHT22;13692;47.480;19.216;2023-03-14T03:40:13;8.70;99.90
25877;DHT22;13692;47.480;19.216;2023-03-14T03:42:40;8.70;99.90
25877;DHT22;13692;47.480;19.216;2023-03-14T03:45:08;8.70;99.90
25877;DHT22;13692;47.480;19.216;2023-03-14T03:47:35;8.70;99.90
25877;DHT22;13692;47.480;19.216;2023-03-14T03:50:02;8.70;99.90
25877;DHT22;13692;47.480;19.216;2023-03-14T03:52:29;8.70;99.90
25877;DHT22;13692;47.480;19.216;2023-03-14T03:54:56;8.70;99.90
25877;DHT22;13692;47.480;19.216;2023-03-14T03:57:23;8.70;99.90
25877;DHT22;13692;47.480;19.216;2023-03-14T03:59:50;8.70;99.90
25877;DHT22;13692;47.480;19.216;2023-03-14T04:02:16;8.70;99.90
25877;DHT22;13692;47.480;19.216;2023-03-14T04:04:43;8.70;99.90
25877;DHT22;13692;47.480;19.216;2023-03-14T04:07:10;8.70;99.90
25877;DHT22;13692;47.480;19.216;2023-03-14T04:09:40;8.70;99.90
25877;DHT22;13692;47.480;19.216;2023-03-14T04:12:07;8.90;99.90
25877;DHT22;13692;47.480;19.216;2023-03-14T04:14:34;9.10;99.90
25877;DHT22;13692;47.480;19.216;2023-03-14T04:17:01;9.20;99.90
25877;DHT22;13692;47.480;19.216;2023-03-14T04:19:28;9.30;99.90
25877;DHT22;13692;47.480;19.216;2023-03-14T04:21:55;9.40;99.90
25877;DHT22;13692;47.480;19.216;2023-03-14T04:24:22;9.40;99.90
25877;DHT22;13692;47.480;19.216;2023-03-14T04:26:49;9.40;99.80
25877;DHT22;13692;47.480;19.216;2023-03-14T04:29:16;9.40;99.60
25877;DHT22;13692;47.480;19.216;2023-03-14T04:31:43;9.50;99.40
25877;DHT22;13692;47.480;19.216;2023-03-14T04:34:10;9.60;99.10
25877;DHT22;13692;47.480;19.216;2023-03-14T04:36:36;9.70;99.10
25877;DHT22;13692;47.480;19.216;2023-03-14T04:39:05;9.60;99.00
25877;DHT22;13692;47.480;19.216;2023-03-14T04:41:32;9.50;99.10
25877;DHT22;13692;47.480;19.216;2023-03-14T04:43:59;9.50;99.10
25877;DHT22;13692;47.480;19.216;2023-03-14T04:46:26;9.40;99.30
25877;DHT22;13692;47.480;19.216;2023-03-14T04:48:53;9.30;99.40
25877;DHT22;13692;47.480;19.216;2023-03-14T04:51:22;9.20;99.40
25877;DHT22;13692;47.480;19.216;2023-03-14T04:53:50;9.20;99.50
25877;DHT22;13692;47.480;19.216;2023-03-14T04:56:16;9.20;99.40
25877;DHT22;13692;47.480;19.216;2023-03-14T04:58:43;9.20;99.60
25877;DHT22;13692;47.480;19.216;2023-03-14T05:01:11;9.20;99.20
25877;DHT22;13692;47.480;19.216;2023-03-14T05:03:38;9.20;99.40
25877;DHT22;13692;47.480;19.216;2023-03-14T05:06:05;9.20;99.50
25877;DHT22;13692;47.480;19.216;2023-03-14T05:08:32;9.20;99.50
25877;DHT22;13692;47.480;19.216;2023-03-14T05:10:59;9.20;99.40
25877;DHT22;13692;47.480;19.216;2023-03-14T05:13:26;9.20;99.20
25877;DHT22;13692;47.480;19.216;2023-03-14T05:15:53;9.30;99.00
25877;DHT22;13692;47.480;19.216;2023-03-14T05:18:22;9.30;99.00
25877;DHT22;13692;47.480;19.216;2023-03-14T05:20:50;9.30;99.20
25877;DHT22;13692;47.480;19.216;2023-03-14T05:23:18;9.30;98.90
25877;DHT22;13692;47.480;19.216;2023-03-14T05:25:45;9.30;99.00
25877;DHT22;13692;47.480;19.216;2023-03-14T05:28:12;9.30;98.90
25877;DHT22;13692;47.480;19.216;2023-03-14T05:30:39;9.20;99.00
25877;DHT22;13692;47.480;19.216;2023-03-14T05:33:06;9.30;99.00
25877;DHT22;13692;47.480;19.216;2023-03-14T05:35:33;9.30;98.90
25877;DHT22;13692;47.480;19.216;2023-03-14T05:38:00;9.20;99.00
25877;DHT22;13692;47.480;19.216;2023-03-14T05:40:27;9.20;99.20
25877;DHT22;13692;47.480;19.216;2023-03-14T05:42:54;9.20;99.00
25877;DHT22;13692;47.480;19.216;2023-03-14T05:45:21;9.20;99.10
25877;DHT22;13692;47.480;19.216;2023-03-14T05:47:48;9.20;99.10
25877;DHT22;13692;47.480;19.216;2023-03-14T05:50:15;9.30;99.10
25877;DHT22;13692;47.480;19.216;2023-03-14T05:52:42;9.40;98.90
25877;DHT22;13692;47.480;19.216;2023-03-14T05:55:09;9.60;98.80
25877;DHT22;13692;47.480;19.216;2023-03-14T05:57:35;9.80;98.40
25877;DHT22;13692;47.480;19.216;2023-03-14T06:00:03;9.90;98.30
25877;DHT22;13692;47.480;19.216;2023-03-14T06:02:30;10.00;97.90
25877;DHT22;13692;47.480;19.216;2023-03-14T06:04:57;10.30;97.70
25877;DHT22;13692;47.480;19.216;2023-03-14T06:07:24;10.60;97.30
25877;DHT22;13692;47.480;19.216;2023-03-14T06:09:51;11.00;96.40
25877;DHT22;13692;47.480;19.216;2023-03-14T06:12:18;11.30;95.90
25877;DHT22;13692;47.480;19.216;2023-03-14T06:14:45;11.70;95.00
25877;DHT22;13692;47.480;19.216;2023-03-14T06:17:12;12.10;94.10
25877;DHT22;13692;47.480;19.216;2023-03-14T06:19:39;12.50;93.40
25877;DHT22;13692;47.480;19.216;2023-03-14T06:22:05;12.90;92.40
25877;DHT22;13692;47.480;19.216;2023-03-14T06:24:32;13.20;91.90
25877;DHT22;13692;47.480;19.216;2023-03-14T06:27:00;13.50;91.40
25877;DHT22;13692;47.480;19.216;2023-03-14T06:29:29;13.80;90.80
25877;DHT22;13692;47.480;19.216;2023-03-14T06:31:56;14.10;90.10
25877;DHT22;13692;47.480;19.216;2023-03-14T06:34:23;14.40;89.00
25877;DHT22;13692;47.480;19.216;2023-03-14T06:36:50;14.50;87.20
25877;DHT22;13692;47.480;19.216;2023-03-14T06:39:17;14.50;87.10
25877;DHT22;13692;47.480;19.216;2023-03-14T06:41:44;14.70;86.70
25877;DHT22;13692;47.480;19.216;2023-03-14T06:44:11;14.80;86.30
25877;DHT22;13692;47.480;19.216;2023-03-14T06:46:38;14.70;85.30
25877;DHT22;13692;47.480;19.216;2023-03-14T06:49:05;14.60;85.40
25877;DHT22;13692;47.480;19.216;2023-03-14T06:51:32;14.80;85.80
25877;DHT22;13692;47.480;19.216;2023-03-14T06:53:59;14.50;85.00
25877;DHT22;13692;47.480;19.216;2023-03-14T06:56:26;14.30;86.20
25877;DHT22;13692;47.480;19.216;2023-03-14T06:58:53;14.30;86.50
25877;DHT22;13692;47.480;19.216;2023-03-14T07:01:24;14.20;86.90
25877;DHT22;13692;47.480;19.216;2023-03-14T07:03:51;14.20;87.70
25877;DHT22;13692;47.480;19.216;2023-03-14T07:06:18;14.10;87.70
25877;DHT22;13692;47.480;19.216;2023-03-14T07:08:45;14.10;88.10
25877;DHT22;13692;47.480;19.216;2023-03-14T07:11:12;14.10;87.40
25877;DHT22;13692;47.480;19.216;2023-03-14T07:13:39;14.10;88.10
25877;DHT22;13692;47.480;19.216;2023-03-14T07:16:07;14.20;88.30
25877;DHT22;13692;47.480;19.216;2023-03-14T07:18:34;14.20;88.20
25877;DHT22;13692;47.480;19.216;2023-03-14T07:21:01;14.30;88.20
25877;DHT22;13692;47.480;19.216;2023-03-14T07:23:28;14.50;87.70
25877;DHT22;13692;47.480;19.216;2023-03-14T07:25:56;14.60;87.60
25877;DHT22;13692;47.480;19.216;2023-03-14T07:28:23;14.80;87.20
25877;DHT22;13692;47.480;19.216;2023-03-14T07:30:50;15.10;86.90
25877;DHT22;13692;47.480;19.216;2023-03-14T07:33:17;15.30;85.40
25877;DHT22;13692;47.480;19.216;2023-03-14T07:35:44;15.40;85.80
25877;DHT22;13692;47.480;19.216;2023-03-14T07:38:11;15.60;85.50
25877;DHT22;13692;47.480;19.216;2023-03-14T07:40:38;15.90;84.50
25877;DHT22;13692;47.480;19.216;2023-03-14T07:43:05;16.30;83.90
25877;DHT22;13692;47.480;19.216;2023-03-14T07:45:32;16.50;83.00
25877;DHT22;13692;47.480;19.216;2023-03-14T07:48:08;16.70;82.70
25877;DHT22;13692;47.480;19.216;2023-03-14T07:50:35;17.00;82.00
25877;DHT22;13692;47.480;19.216;2023-03-14T07:53:02;17.20;81.00
25877;DHT22;13692;47.480;19.216;2023-03-14T07:55:28;17.50;79.80
25877;DHT22;13692;47.480;19.216;2023-03-14T07:57:55;17.60;79.60
25877;DHT22;13692;47.480;19.216;2023-03-14T08:00:22;17.60;79.20
25877;DHT22;13692;47.480;19.216;2023-03-14T08:02:49;17.60;79.60
25877;DHT22;13692;47.480;19.216;2023-03-14T08:05:16;17.60;78.90
25877;DHT22;13692;47.480;19.216;2023-03-14T08:07:43;17.50;79.00
25877;DHT22;13692;47.480;19.216;2023-03-14T08:10:10;17.60;79.30
25877;DHT22;13692;47.480;19.216;2023-03-14T08:12:39;17.70;78.00
25877;DHT22;13692;47.480;19.216;2023-03-14T08:15:06;17.90;78.50
25877;DHT22;13692;47.480;19.216;2023-03-14T08:17:34;18.00;78.00
25877;DHT22;13692;47.480;19.216;2023-03-14T08:20:00;18.10;78.30
25877;DHT22;13692;47.480;19.216;2023-03-14T08:22:27;18.20;77.60
25877;DHT22;13692;47.480;19.216;2023-03-14T08:24:54;18.40;77.20
25877;DHT22;13692;47.480;19.216;2023-03-14T08:27:21;18.40;76.10
25877;DHT22;13692;47.480;19.216;2023-03-14T08:29:48;18.20;76.00
25877;DHT22;13692;47.480;19.216;2023-03-14T08:32:15;18.20;77.50
25877;DHT22;13692;47.480;19.216;2023-03-14T08:34:42;18.40;76.60
25877;DHT22;13692;47.480;19.216;2023-03-14T08:37:09;18.60;76.00
25877;DHT22;13692;47.480;19.216;2023-03-14T08:39:51;19.00;76.40
25877;DHT22;13692;47.480;19.216;2023-03-14T08:42:18;19.70;73.80
25877;DHT22;13692;47.480;19.216;2023-03-14T08:44:45;20.10;73.10
25877;DHT22;13692;47.480;19.216;2023-03-14T08:47:12;20.60;71.60
25877;DHT22;13692;47.480;19.216;2023-03-14T08:49:40;20.90;70.30
25877;DHT22;13692;47.480;19.216;2023-03-14T08:52:07;21.30;69.50
25877;DHT22;13692;47.480;19.216;2023-03-14T08:54:34;21.80;66.60
25877;DHT22;13692;47.480;19.216;2023-03-14T08:57:01;21.80;65.80
25877;DHT22;13692;47.480;19.216;2023-03-14T08:59:27;22.10;65.00
25877;DHT22;13692;47.480;19.216;2023-03-14T09:01:54;22.30;63.70
25877;DHT22;13692;47.480;19.216;2023-03-14T09:04:21;22.20;64.20
25877;DHT22;13692;47.480;19.216;2023-03-14T09:06:49;22.00;63.60
25877;DHT22;13692;47.480;19.216;2023-03-14T09:09:15;22.10;62.90
25877;DHT22;13692;47.480;19.216;2023-03-14T09:11:43;21.80;63.50
25877;DHT22;13692;47.480;19.216;2023-03-14T09:14:10;22.00;63.00
25877;DHT22;13692;47.480;19.216;2023-03-14T09:16:37;22.00;62.70
25877;DHT22;13692;47.480;19.216;2023-03-14T09:19:04;21.80;63.70
25877;DHT22;13692;47.480;19.216;2023-03-14T09:21:32;21.40;63.60
25877;DHT22;13692;47.480;19.216;2023-03-14T09:23:59;21.20;64.40
25877;DHT22;13692;47.480;19.216;2023-03-14T09:26:26;21.40;64.50
25877;DHT22;13692;47.480;19.216;2023-03-14T09:28:53;21.60;64.80
25877;DHT22;13692;47.480;19.216;2023-03-14T09:31:23;21.70;63.70
25877;DHT22;13692;47.480;19.216;2023-03-14T09:33:50;22.10;64.40
25877;DHT22;13692;47.480;19.216;2023-03-14T09:36:17;22.30;62.90
25877;DHT22;13692;47.480;19.216;2023-03-14T09:38:44;22.00;63.20
25877;DHT22;13692;47.480;19.216;2023-03-14T09:41:36;22.00;63.90
25877;DHT22;13692;47.480;19.216;2023-03-14T09:44:24;21.80;63.80
25877;DHT22;13692;47.480;19.216;2023-03-14T09:46:54;21.80;65.40
25877;DHT22;13692;47.480;19.216;2023-03-14T09:49:27;22.20;65.80
25877;DHT22;13692;47.480;19.216;2023-03-14T09:51:56;22.30;63.90
25877;DHT22;13692;47.480;19.216;2023-03-14T09:54:40;22.20;63.50
25877;DHT22;13692;47.480;19.216;2023-03-14T09:57:18;22.00;64.90
25877;DHT22;13692;47.480;19.216;2023-03-14T09:59:47;21.60;64.60
25877;DHT22;13692;47.480;19.216;2023-03-14T10:02:19;21.30;66.50
25877;DHT22;13692;47.480;19.216;2023-03-14T10:04:48;21.40;67.00
25877;DHT22;13692;47.480;19.216;2023-03-14T10:07:18;21.60;66.50
25877;DHT22;13692;47.480;19.216;2023-03-14T10:09:50;21.70;65.60
25877;DHT22;13692;47.480;19.216;2023-03-14T10:12:18;21.50;66.10
25877;DHT22;13692;47.480;19.216;2023-03-14T10:14:52;21.60;66.20
25877;DHT22;13692;47.480;19.216;2023-03-14T10:17:20;21.50;65.90
25877;DHT22;13692;47.480;19.216;2023-03-14T10:19:56;21.40;67.00
25877;DHT22;13692;47.480;19.216;2023-03-14T10:22:27;21.10;66.00
25877;DHT22;13692;47.480;19.216;2023-03-14T10:25:00;20.70;67.40
25877;DHT22;13692;47.480;19.216;2023-03-14T10:27:30;20.80;68.30
25877;DHT22;13692;47.480;19.216;2023-03-14T10:30:00;20.90;68.80
25877;DHT22;13692;47.480;19.216;2023-03-14T10:32:38;21.00;68.50
25877;DHT22;13692;47.480;19.216;2023-03-14T10:37:59;20.80;67.60
25877;DHT22;13692;47.480;19.216;2023-03-14T10:40:31;20.70;69.10
25877;DHT22;13692;47.480;19.216;2023-03-14T10:42:59;20.50;69.10
25877;DHT22;13692;47.480;19.216;2023-03-14T10:45:43;20.20;69.80
25877;DHT22;13692;47.480;19.216;2023-03-14T10:51:05;20.50;71.00
25877;DHT22;13692;47.480;19.216;2023-03-14T10:56:18;20.30;70.60
25877;DHT22;13692;47.480;19.216;2023-03-14T10:58:56;20.10;70.50
25877;DHT22;13692;47.480;19.216;2023-03-14T11:15:11;19.70;73.90
25877;DHT22;13692;47.480;19.216;2023-03-14T11:20:37;20.10;73.60
25877;DHT22;13692;47.480;19.216;2023-03-14T11:23:17;20.30;72.40
25877;DHT22;13692;47.480;19.216;2023-03-14T11:31:44;20.40;71.80
25877;DHT22;13692;47.480;19.216;2023-03-14T11:34:28;20.40;70.60
25877;DHT22;13692;47.480;19.216;2023-03-14T11:39:46;20.50;69.30
25877;DHT22;13692;47.480;19.216;2023-03-14T11:42:18;20.50;69.20
25877;DHT22;13692;47.480;19.216;2023-03-14T11:44:49;20.40;69.50
25877;DHT22;13692;47.480;19.216;2023-03-14T11:47:32;20.30;70.30
25877;DHT22;13692;47.480;19.216;2023-03-14T11:50:17;20.30;70.00
25877;DHT22;13692;47.480;19.216;2023-03-14T11:53:01;20.20;70.60
25877;DHT22;13692;47.480;19.216;2023-03-14T11:55:39;20.20;70.50
25877;DHT22;13692;47.480;19.216;2023-03-14T11:58:29;20.10;70.40
25877;DHT22;13692;47.480;19.216;2023-03-14T12:01:02;20.00;70.70
25877;DHT22;13692;47.480;19.216;2023-03-14T12:06:50;20.00;70.90
25877;DHT22;13692;47.480;19.216;2023-03-14T12:09:19;20.00;70.60
25877;DHT22;13692;47.480;19.216;2023-03-14T12:12:06;20.00;71.40
25877;DHT22;13692;47.480;19.216;2023-03-14T12:14:37;20.00;71.00
25877;DHT22;13692;47.480;19.216;2023-03-14T12:17:24;20.00;71.00
25877;DHT22;13692;47.480;19.216;2023-03-14T12:20:18;20.00;71.00
25877;DHT22;13692;47.480;19.216;2023-03-14T12:22:54;20.00;71.20
25877;DHT22;13692;47.480;19.216;2023-03-14T12:25:26;20.00;71.40
25877;DHT22;13692;47.480;19.216;2023-03-14T12:30:35;20.10;72.20
25877;DHT22;13692;47.480;19.216;2023-03-14T12:35:47;20.20;71.20
25877;DHT22;13692;47.480;19.216;2023-03-14T12:43:44;20.20;70.30
25877;DHT22;13692;47.480;19.216;2023-03-14T12:51:38;20.20;69.30
25877;DHT22;13692;47.480;19.216;2023-03-14T12:59:51;20.20;70.10
25877;DHT22;13692;47.480;19.216;2023-03-14T13:02:30;20.20;69.30
25877;DHT22;13692;47.480;19.216;2023-03-14T13:13:03;20.20;68.60
25877;DHT22;13692;47.480;19.216;2023-03-14T13:15:45;20.10;68.70
25877;DHT22;13692;47.480;19.216;2023-03-14T13:18:17;20.10;68.70
25877;DHT22;13692;47.480;19.216;2023-03-14T13:23:33;20.00;68.00
25877;DHT22;13692;47.480;19.216;2023-03-14T13:26:01;20.00;68.50
25877;DHT22;13692;47.480;19.216;2023-03-14T13:28:30;19.90;68.60
25877;DHT22;13692;47.480;19.216;2023-03-14T13:31:00;19.80;69.20
25877;DHT22;13692;47.480;19.216;2023-03-14T13:33:28;19.80;69.10
25877;DHT22;13692;47.480;19.216;2023-03-14T13:38:24;19.70;69.40
25877;DHT22;13692;47.480;19.216;2023-03-14T13:40:55;19.70;69.50
25877;DHT22;13692;47.480;19.216;2023-03-14T13:43:43;19.60;69.70
25877;DHT22;13692;47.480;19.216;2023-03-14T13:46:19;19.60;69.50
25877;DHT22;13692;47.480;19.216;2023-03-14T13:48:49;19.50;69.70
25877;DHT22;13692;47.480;19.216;2023-03-14T13:51:19;19.50;69.50
25877;DHT22;13692;47.480;19.216;2023-03-14T13:53:52;19.50;69.80
25877;DHT22;13692;47.480;19.216;2023-03-14T13:56:26;19.40;70.00
25877;DHT22;13692;47.480;19.216;2023-03-14T13:58:54;19.40;71.10
25877;DHT22;13692;47.480;19.216;2023-03-14T14:01:27;19.30;72.90
25877;DHT22;13692;47.480;19.216;2023-03-14T14:04:02;19.20;74.20
25877;DHT22;13692;47.480;19.216;2023-03-14T14:06:39;19.20;75.00
25877;DHT22;13692;47.480;19.216;2023-03-14T14:09:20;19.20;75.10
25877;DHT22;13692;47.480;19.216;2023-03-14T14:12:06;19.20;75.50
25877;DHT22;13692;47.480;19.216;2023-03-14T14:15:02;19.20;75.50
25877;DHT22;13692;47.480;19.216;2023-03-14T14:17:48;19.20;75.50
25877;DHT22;13692;47.480;19.216;2023-03-14T14:20:34;19.20;75.70
25877;DHT22;13692;47.480;19.216;2023-03-14T14:23:04;19.10;75.70
25877;DHT22;13692;47.480;19.216;2023-03-14T14:25:32;19.20;76.00
25877;DHT22;13692;47.480;19.216;2023-03-14T14:28:20;19.10;75.20
25877;DHT22;13692;47.480;19.216;2023-03-14T14:31:03;19.10;75.40
25877;DHT22;13692;47.480;19.216;2023-03-14T14:33:41;19.10;76.30
25877;DHT22;13692;47.480;19.216;2023-03-14T14:36:24;19.00;75.90
25877;DHT22;13692;47.480;19.216;2023-03-14T14:39:00;19.00;76.00
25877;DHT22;13692;47.480;19.216;2023-03-14T14:41:30;18.90;76.10
25877;DHT22;13692;47.480;19.216;2023-03-14T14:43:58;18.90;75.40
25877;DHT22;13692;47.480;19.216;2023-03-14T14:46:28;18.80;75.30
25877;DHT22;13692;47.480;19.216;2023-03-14T14:48:58;18.80;75.10
25877;DHT22;13692;47.480;19.216;2023-03-14T14:51:33;18.70;74.50
25877;DHT22;13692;47.480;19.216;2023-03-14T14:54:12;18.70;74.40
25877;DHT22;13692;47.480;19.216;2023-03-14T14:56:40;18.60;74.50
25877;DHT22;13692;47.480;19.216;2023-03-14T14:59:26;18.60;74.60
25877;DHT22;13692;47.480;19.216;2023-03-14T15:01:57;18.50;74.30
25877;DHT22;13692;47.480;19.216;2023-03-14T15:04:25;18.50;74.70
25877;DHT22;13692;47.480;19.216;2023-03-14T15:06:52;18.50;75.10
25877;DHT22;13692;47.480;19.216;2023-03-14T15:09:19;18.40;75.10
25877;DHT22;13692;47.480;19.216;2023-03-14T15:11:47;18.40;74.80
25877;DHT22;13692;47.480;19.216;2023-03-14T15:14:14;18.30;75.50
25877;DHT22;13692;47.480;19.216;2023-03-14T15:16:41;18.30;75.10
25877;DHT22;13692;47.480;19.216;2023-03-14T15:19:13;18.20;75.30
25877;DHT22;13692;47.480;19.216;2023-03-14T15:21:52;18.20;75.90
25877;DHT22;13692;47.480;19.216;2023-03-14T15:24:19;18.10;76.10
25877;DHT22;13692;47.480;19.216;2023-03-14T15:26:46;18.10;76.30
25877;DHT22;13692;47.480;19.216;2023-03-14T15:29:13;18.10;76.90
25877;DHT22;13692;47.480;19.216;2023-03-14T15:31:40;18.10;76.80
25877;DHT22;13692;47.480;19.216;2023-03-14T15:34:09;18.00;77.50
25877;DHT22;13692;47.480;19.216;2023-03-14T15:36:37;17.90;77.20
25877;DHT22;13692;47.480;19.216;2023-03-14T15:39:06;17.90;77.70
25877;DHT22;13692;47.480;19.216;2023-03-14T15:41:33;17.80;78.10
25877;DHT22;13692;47.480;19.216;2023-03-14T15:44:00;17.90;78.40
25877;DHT22;13692;47.480;19.216;2023-03-14T15:46:27;17.80;78.50
25877;DHT22;13692;47.480;19.216;2023-03-14T15:48:56;17.70;79.10
25877;DHT22;13692;47.480;19.216;2023-03-14T15:51:23;17.70;79.20
25877;DHT22;13692;47.480;19.216;2023-03-14T15:53:50;17.70;79.70
25877;DHT22;13692;47.480;19.216;2023-03-14T15:56:20;17.60;79.90
25877;DHT22;13692;47.480;19.216;2023-03-14T15:58:50;17.50;80.00
25877;DHT22;13692;47.480;19.216;2023-03-14T16:01:17;17.50;81.40
25877;DHT22;13692;47.480;19.216;2023-03-14T16:03:45;17.40;83.50
25877;DHT22;13692;47.480;19.216;2023-03-14T16:06:13;17.30;84.50
25877;DHT22;13692;47.480;19.216;2023-03-14T16:08:41;17.30;86.00
25877;DHT22;13692;47.480;19.216;2023-03-14T16:11:10;17.20;87.80
25877;DHT22;13692;47.480;19.216;2023-03-14T16:13:37;17.10;90.30
25877;DHT22;13692;47.480;19.216;2023-03-14T16:16:06;17.00;91.50
25877;DHT22;13692;47.480;19.216;2023-03-14T16:18:36;16.80;92.30
25877;DHT22;13692;47.480;19.216;2023-03-14T16:21:12;16.70;94.60
25877;DHT22;13692;47.480;19.216;2023-03-14T16:23:39;16.60;97.20
25877;DHT22;13692;47.480;19.216;2023-03-14T16:26:09;16.40;99.90
25877;DHT22;13692;47.480;19.216;2023-03-14T16:28:37;16.20;99.90
25877;DHT22;13692;47.480;19.216;2023-03-14T16:31:09;16.10;99.90
25877;DHT22;13692;47.480;19.216;2023-03-14T16:33:38;15.90;99.90
25877;DHT22;13692;47.480;19.216;2023-03-14T16:36:06;15.90;99.90
25877;DHT22;13692;47.480;19.216;2023-03-14T16:38:35;15.80;99.90
25877;DHT22;13692;47.480;19.216;2023-03-14T16:41:05;15.70;99.90
25877;DHT22;13692;47.480;19.216;2023-03-14T16:43:33;15.60;99.90
25877;DHT22;13692;47.480;19.216;2023-03-14T16:46:04;15.60;99.90
25877;DHT22;13692;47.480;19.216;2023-03-14T16:48:32;15.60;99.90
25877;DHT22;13692;47.480;19.216;2023-03-14T16:51:00;15.50;99.90
25877;DHT22;13692;47.480;19.216;2023-03-14T16:53:33;15.40;99.90
25877;DHT22;13692;47.480;19.216;2023-03-14T16:56:01;15.40;99.90
25877;DHT22;13692;47.480;19.216;2023-03-14T16:58:29;15.30;99.90
25877;DHT22;13692;47.480;19.216;2023-03-14T17:00:57;15.30;99.90